sensor_id;sensor_type;location;lat;lon;timestamp;temperature;humidity
60495;DHT22;46342;49.046;11.920;2023-07-20T00:01:25;21.40;48.90
60495;DHT22;46342;49.046;11.920;2023-07-20T00:03:51;21.30;49.00
60495;DHT22;46342;49.046;11.920;2023-07-20T00:06:24;21.30;49.00
60495;DHT22;46342;49.046;11.920;2023-07-20T00:08:54;21.30;49.30
60495;DHT22;46342;49.046;11.920;2023-07-20T00:11:19;21.20;49.20
60495;DHT22;46342;49.046;11.920;2023-07-20T00:13:45;21.20;49.20
60495;DHT22;46342;49.046;11.920;2023-07-20T00:16:10;21.20;49.30
60495;DHT22;46342;49.046;11.920;2023-07-20T00:18:36;21.10;49.30
60495;DHT22;46342;49.046;11.920;2023-07-20T00:21:02;21.10;49.40
60495;DHT22;46342;49.046;11.920;2023-07-20T00:23:27;21.10;49.60
60495;DHT22;46342;49.046;11.920;2023-07-20T00:25:53;21.00;49.60
60495;DHT22;46342;49.046;11.920;2023-07-20T00:28:19;21.00;49.70
60495;DHT22;46342;49.046;11.920;2023-07-20T00:30:45;21.00;49.80
60495;DHT22;46342;49.046;11.920;2023-07-20T00:33:11;21.00;49.90
60495;DHT22;46342;49.046;11.920;2023-07-20T00:35:37;21.00;50.10
60495;DHT22;46342;49.046;11.920;2023-07-20T00:38:04;21.00;50.10
60495;DHT22;46342;49.046;11.920;2023-07-20T00:40:36;20.90;50.10
60495;DHT22;46342;49.046;11.920;2023-07-20T00:43:02;21.00;51.10
60495;DHT22;46342;49.046;11.920;2023-07-20T00:45:29;20.90;50.20
60495;DHT22;46342;49.046;11.920;2023-07-20T00:47:54;20.90;50.30
60495;DHT22;46342;49.046;11.920;2023-07-20T00:50:20;20.90;50.40
60495;DHT22;46342;49.046;11.920;2023-07-20T00:52:46;20.90;50.50
60495;DHT22;46342;49.046;11.920;2023-07-20T00:55:11;20.90;50.50
60495;DHT22;46342;49.046;11.920;2023-07-20T00:57:37;20.90;50.60
60495;DHT22;46342;49.046;11.920;2023-07-20T01:00:03;20.90;50.60
60495;DHT22;46342;49.046;11.920;2023-07-20T01:02:29;20.90;50.70
60495;DHT22;46342;49.046;11.920;2023-07-20T01:04:55;20.90;50.80
60495;DHT22;46342;49.046;11.920;2023-07-20T01:07:29;20.90;50.80
60495;DHT22;46342;49.046;11.920;2023-07-20T01:10:14;20.90;51.60
60495;DHT22;46342;49.046;11.920;2023-07-20T01:12:46;20.90;52.40
60495;DHT22;46342;49.046;11.920;2023-07-20T01:15:12;20.90;50.90
60495;DHT22;46342;49.046;11.920;2023-07-20T01:17:38;20.90;50.90
60495;DHT22;46342;49.046;11.920;2023-07-20T01:20:05;20.90;51.00
60495;DHT22;46342;49.046;11.920;2023-07-20T01:33:43;20.90;52.00
60495;DHT22;46342;49.046;11.920;2023-07-20T01:36:10;20.80;51.10
60495;DHT22;46342;49.046;11.920;2023-07-20T01:38:37;20.80;51.20
60495;DHT22;46342;49.046;11.920;2023-07-20T01:41:03;20.80;51.40
60495;DHT22;46342;49.046;11.920;2023-07-20T01:43:29;20.80;51.40
60495;DHT22;46342;49.046;11.920;2023-07-20T01:45:54;20.80;51.40
60495;DHT22;46342;49.046;11.920;2023-07-20T01:48:20;20.80;51.50
60495;DHT22;46342;49.046;11.920;2023-07-20T01:50:45;20.80;51.60
60495;DHT22;46342;49.046;11.920;2023-07-20T01:53:11;20.80;51.60
60495;DHT22;46342;49.046;11.920;2023-07-20T01:55:37;20.80;51.60
60495;DHT22;46342;49.046;11.920;2023-07-20T01:58:02;20.80;51.70
60495;DHT22;46342;49.046;11.920;2023-07-20T02:00:29;20.80;51.70
60495;DHT22;46342;49.046;11.920;2023-07-20T02:02:54;20.80;51.80
60495;DHT22;46342;49.046;11.920;2023-07-20T02:05:20;20.80;51.80
60495;DHT22;46342;49.046;11.920;2023-07-20T02:07:46;20.80;51.80
60495;DHT22;46342;49.046;11.920;2023-07-20T02:10:11;20.80;51.80
60495;DHT22;46342;49.046;11.920;2023-07-20T02:12:37;20.80;51.80
60495;DHT22;46342;49.046;11.920;2023-07-20T02:15:03;20.80;51.90
60495;DHT22;46342;49.046;11.920;2023-07-20T02:17:29;20.80;52.00
60495;DHT22;46342;49.046;11.920;2023-07-20T02:19:56;20.80;52.00
60495;DHT22;46342;49.046;11.920;2023-07-20T02:22:22;20.80;52.00
60495;DHT22;46342;49.046;11.920;2023-07-20T02:24:48;20.80;52.50
60495;DHT22;46342;49.046;11.920;2023-07-20T02:27:14;20.80;51.60
60495;DHT22;46342;49.046;11.920;2023-07-20T02:29:41;20.70;51.60
60495;DHT22;46342;49.046;11.920;2023-07-20T02:32:07;20.70;51.90
60495;DHT22;46342;49.046;11.920;2023-07-20T02:34:34;20.70;51.90
60495;DHT22;46342;49.046;11.920;2023-07-20T02:37:00;20.70;51.90
60495;DHT22;46342;49.046;11.920;2023-07-20T02:39:27;20.70;52.00
60495;DHT22;46342;49.046;11.920;2023-07-20T02:41:53;20.70;52.20
60495;DHT22;46342;49.046;11.920;2023-07-20T02:44:19;20.60;52.00
60495;DHT22;46342;49.046;11.920;2023-07-20T02:46:45;20.70;52.20
60495;DHT22;46342;49.046;11.920;2023-07-20T02:49:11;20.60;52.10
60495;DHT22;46342;49.046;11.920;2023-07-20T02:51:36;20.60;52.20
60495;DHT22;46342;49.046;11.920;2023-07-20T02:54:02;20.70;52.20
60495;DHT22;46342;49.046;11.920;2023-07-20T02:56:28;20.60;52.20
60495;DHT22;46342;49.046;11.920;2023-07-20T02:58:54;20.60;52.20
60495;DHT22;46342;49.046;11.920;2023-07-20T03:01:19;20.60;52.30
60495;DHT22;46342;49.046;11.920;2023-07-20T03:03:45;20.60;52.30
60495;DHT22;46342;49.046;11.920;2023-07-20T03:06:16;20.60;52.30
60495;DHT22;46342;49.046;11.920;2023-07-20T03:08:42;20.60;52.40
60495;DHT22;46342;49.046;11.920;2023-07-20T03:11:10;20.60;52.30
60495;DHT22;46342;49.046;11.920;2023-07-20T03:13:36;20.60;52.40
60495;DHT22;46342;49.046;11.920;2023-07-20T03:16:02;20.60;52.30
60495;DHT22;46342;49.046;11.920;2023-07-20T03:18:27;20.60;52.30
60495;DHT22;46342;49.046;11.920;2023-07-20T03:20:53;20.60;52.30
60495;DHT22;46342;49.046;11.920;2023-07-20T03:23:18;20.70;52.40
60495;DHT22;46342;49.046;11.920;2023-07-20T03:25:44;20.60;52.40
60495;DHT22;46342;49.046;11.920;2023-07-20T03:28:09;20.60;52.50
60495;DHT22;46342;49.046;11.920;2023-07-20T03:30:35;20.60;52.30
60495;DHT22;46342;49.046;11.920;2023-07-20T03:33:01;20.60;52.40
60495;DHT22;46342;49.046;11.920;2023-07-20T03:35:26;20.60;52.50
60495;DHT22;46342;49.046;11.920;2023-07-20T03:37:52;20.60;52.30
60495;DHT22;46342;49.046;11.920;2023-07-20T03:40:17;20.60;52.40
60495;DHT22;46342;49.046;11.920;2023-07-20T03:42:43;20.60;52.40
60495;DHT22;46342;49.046;11.920;2023-07-20T03:45:09;20.60;52.40
60495;DHT22;46342;49.046;11.920;2023-07-20T03:47:34;20.60;52.40
60495;DHT22;46342;49.046;11.920;2023-07-20T03:50:00;20.60;52.40
60495;DHT22;46342;49.046;11.920;2023-07-20T03:52:25;20.60;52.40
60495;DHT22;46342;49.046;11.920;2023-07-20T03:54:51;20.60;52.40
60495;DHT22;46342;49.046;11.920;2023-07-20T03:57:17;20.50;52.20
60495;DHT22;46342;49.046;11.920;2023-07-20T03:59:45;20.60;52.40
60495;DHT22;46342;49.046;11.920;2023-07-20T04:02:11;20.60;52.50
60495;DHT22;46342;49.046;11.920;2023-07-20T04:04:39;20.50;52.30
60495;DHT22;46342;49.046;11.920;2023-07-20T04:07:05;20.50;52.30
60495;DHT22;46342;49.046;11.920;2023-07-20T04:09:32;20.50;52.30
60495;DHT22;46342;49.046;11.920;2023-07-20T04:11:57;20.50;52.40
60495;DHT22;46342;49.046;11.920;2023-07-20T04:14:23;20.50;52.30
60495;DHT22;46342;49.046;11.920;2023-07-20T04:16:48;20.50;52.30
60495;DHT22;46342;49.046;11.920;2023-07-20T04:19:14;20.50;52.30
60495;DHT22;46342;49.046;11.920;2023-07-20T04:21:40;20.50;52.30
60495;DHT22;46342;49.046;11.920;2023-07-20T04:24:07;20.50;52.30
60495;DHT22;46342;49.046;11.920;2023-07-20T04:26:32;20.50;52.30
60495;DHT22;46342;49.046;11.920;2023-07-20T04:28:58;20.50;52.20
60495;DHT22;46342;49.046;11.920;2023-07-20T04:31:25;20.50;52.20
60495;DHT22;46342;49.046;11.920;2023-07-20T04:33:50;20.50;52.20
60495;DHT22;46342;49.046;11.920;2023-07-20T04:36:16;20.50;52.20
60495;DHT22;46342;49.046;11.920;2023-07-20T04:38:45;20.50;52.20
60495;DHT22;46342;49.046;11.920;2023-07-20T04:41:11;20.50;52.20
60495;DHT22;46342;49.046;11.920;2023-07-20T04:47:02;20.60;52.80
60495;DHT22;46342;49.046;11.920;2023-07-20T04:49:28;20.60;52.20
60495;DHT22;46342;49.046;11.920;2023-07-20T04:51:53;20.60;52.20
60495;DHT22;46342;49.046;11.920;2023-07-20T04:54:20;20.60;52.20
60495;DHT22;46342;49.046;11.920;2023-07-20T04:56:45;20.60;52.20
60495;DHT22;46342;49.046;11.920;2023-07-20T04:59:11;20.60;52.20
60495;DHT22;46342;49.046;11.920;2023-07-20T05:01:36;20.60;52.20
60495;DHT22;46342;49.046;11.920;2023-07-20T05:04:02;20.60;52.30
60495;DHT22;46342;49.046;11.920;2023-07-20T05:06:28;20.60;52.30
60495;DHT22;46342;49.046;11.920;2023-07-20T05:08:53;20.60;52.40
60495;DHT22;46342;49.046;11.920;2023-07-20T05:11:19;20.70;52.50
60495;DHT22;46342;49.046;11.920;2023-07-20T05:13:45;20.70;52.50
60495;DHT22;46342;49.046;11.920;2023-07-20T05:16:11;20.70;52.60
60495;DHT22;46342;49.046;11.920;2023-07-20T05:18:36;20.70;52.60
60495;DHT22;46342;49.046;11.920;2023-07-20T05:21:02;20.70;52.70
60495;DHT22;46342;49.046;11.920;2023-07-20T05:23:27;20.70;52.70
60495;DHT22;46342;49.046;11.920;2023-07-20T05:25:57;20.70;52.70
60495;DHT22;46342;49.046;11.920;2023-07-20T05:28:26;20.80;53.10
60495;DHT22;46342;49.046;11.920;2023-07-20T05:30:53;20.80;53.20
60495;DHT22;46342;49.046;11.920;2023-07-20T05:33:19;20.80;52.90
60495;DHT22;46342;49.046;11.920;2023-07-20T05:35:45;20.80;53.00
60495;DHT22;46342;49.046;11.920;2023-07-20T05:38:10;20.80;53.00
60495;DHT22;46342;49.046;11.920;2023-07-20T05:40:41;20.80;53.10
60495;DHT22;46342;49.046;11.920;2023-07-20T05:43:10;20.80;53.70
60495;DHT22;46342;49.046;11.920;2023-07-20T05:45:36;20.80;53.20
60495;DHT22;46342;49.046;11.920;2023-07-20T05:48:01;20.90;53.40
60495;DHT22;46342;49.046;11.920;2023-07-20T05:50:27;20.90;53.40
60495;DHT22;46342;49.046;11.920;2023-07-20T05:52:53;20.90;53.50
60495;DHT22;46342;49.046;11.920;2023-07-20T05:55:19;20.90;53.50
60495;DHT22;46342;49.046;11.920;2023-07-20T05:57:45;21.00;53.70
60495;DHT22;46342;49.046;11.920;2023-07-20T06:00:11;21.00;53.70
60495;DHT22;46342;49.046;11.920;2023-07-20T06:02:38;21.00;53.80
60495;DHT22;46342;49.046;11.920;2023-07-20T06:05:05;21.00;53.70
60495;DHT22;46342;49.046;11.920;2023-07-20T06:07:30;21.00;53.80
60495;DHT22;46342;49.046;11.920;2023-07-20T06:09:56;21.10;53.80
60495;DHT22;46342;49.046;11.920;2023-07-20T06:12:23;21.10;53.90
60495;DHT22;46342;49.046;11.920;2023-07-20T06:14:49;21.10;53.80
60495;DHT22;46342;49.046;11.920;2023-07-20T06:17:14;21.10;53.80
60495;DHT22;46342;49.046;11.920;2023-07-20T06:19:40;21.20;53.90
60495;DHT22;46342;49.046;11.920;2023-07-20T06:22:06;21.20;53.90
60495;DHT22;46342;49.046;11.920;2023-07-20T06:24:31;21.20;53.80
60495;DHT22;46342;49.046;11.920;2023-07-20T06:26:57;21.20;53.90
60495;DHT22;46342;49.046;11.920;2023-07-20T06:29:22;21.20;53.90
60495;DHT22;46342;49.046;11.920;2023-07-20T06:31:48;21.30;53.90
60495;DHT22;46342;49.046;11.920;2023-07-20T06:34:13;21.30;53.90
60495;DHT22;46342;49.046;11.920;2023-07-20T06:36:39;21.30;53.90
60495;DHT22;46342;49.046;11.920;2023-07-20T06:39:05;21.30;53.80
60495;DHT22;46342;49.046;11.920;2023-07-20T06:41:30;21.40;53.90
60495;DHT22;46342;49.046;11.920;2023-07-20T06:43:56;21.40;53.90
60495;DHT22;46342;49.046;11.920;2023-07-20T06:46:25;21.40;53.80
60495;DHT22;46342;49.046;11.920;2023-07-20T06:48:51;21.50;53.70
60495;DHT22;46342;49.046;11.920;2023-07-20T06:51:16;21.50;53.60
60495;DHT22;46342;49.046;11.920;2023-07-20T06:53:43;21.50;53.60
60495;DHT22;46342;49.046;11.920;2023-07-20T06:56:08;21.60;53.70
60495;DHT22;46342;49.046;11.920;2023-07-20T06:58:34;21.60;53.60
60495;DHT22;46342;49.046;11.920;2023-07-20T07:01:04;21.60;53.50
60495;DHT22;46342;49.046;11.920;2023-07-20T07:03:30;21.60;53.70
60495;DHT22;46342;49.046;11.920;2023-07-20T07:05:56;21.70;53.60
60495;DHT22;46342;49.046;11.920;2023-07-20T07:08:22;21.70;53.60
60495;DHT22;46342;49.046;11.920;2023-07-20T07:10:47;21.70;53.60
60495;DHT22;46342;49.046;11.920;2023-07-20T07:13:13;21.80;53.60
60495;DHT22;46342;49.046;11.920;2023-07-20T07:15:38;21.80;53.50
60495;DHT22;46342;49.046;11.920;2023-07-20T07:18:04;21.90;53.50
60495;DHT22;46342;49.046;11.920;2023-07-20T07:20:29;21.90;53.30
60495;DHT22;46342;49.046;11.920;2023-07-20T07:22:55;21.90;53.00
60495;DHT22;46342;49.046;11.920;2023-07-20T07:25:22;22.00;53.00
60495;DHT22;46342;49.046;11.920;2023-07-20T07:27:48;22.00;52.80
60495;DHT22;46342;49.046;11.920;2023-07-20T07:30:13;22.00;52.70
60495;DHT22;46342;49.046;11.920;2023-07-20T07:32:39;22.00;52.70
60495;DHT22;46342;49.046;11.920;2023-07-20T07:35:05;22.10;52.70
60495;DHT22;46342;49.046;11.920;2023-07-20T07:37:31;22.10;52.60
60495;DHT22;46342;49.046;11.920;2023-07-20T07:39:56;22.10;52.50
60495;DHT22;46342;49.046;11.920;2023-07-20T07:42:22;22.10;52.40
60495;DHT22;46342;49.046;11.920;2023-07-20T07:44:48;22.20;52.50
60495;DHT22;46342;49.046;11.920;2023-07-20T07:47:14;22.30;52.50
60495;DHT22;46342;49.046;11.920;2023-07-20T07:49:40;22.30;52.50
60495;DHT22;46342;49.046;11.920;2023-07-20T07:52:05;22.30;52.30
60495;DHT22;46342;49.046;11.920;2023-07-20T07:54:31;22.40;52.20
60495;DHT22;46342;49.046;11.920;2023-07-20T07:56:57;22.40;52.20
60495;DHT22;46342;49.046;11.920;2023-07-20T07:59:22;22.60;52.20
60495;DHT22;46342;49.046;11.920;2023-07-20T08:01:48;22.50;52.10
60495;DHT22;46342;49.046;11.920;2023-07-20T08:04:13;22.60;52.10
60495;DHT22;46342;49.046;11.920;2023-07-20T08:06:40;22.60;52.00
60495;DHT22;46342;49.046;11.920;2023-07-20T08:09:05;22.70;51.80
60495;DHT22;46342;49.046;11.920;2023-07-20T08:11:31;22.80;51.70
60495;DHT22;46342;49.046;11.920;2023-07-20T08:14:01;22.80;51.60
60495;DHT22;46342;49.046;11.920;2023-07-20T08:16:27;22.90;51.50
60495;DHT22;46342;49.046;11.920;2023-07-20T08:18:53;22.90;51.30
60495;DHT22;46342;49.046;11.920;2023-07-20T08:21:18;23.00;51.30
60495;DHT22;46342;49.046;11.920;2023-07-20T08:23:44;23.00;51.20
60495;DHT22;46342;49.046;11.920;2023-07-20T08:26:10;23.10;51.30
60495;DHT22;46342;49.046;11.920;2023-07-20T08:28:35;23.20;51.20
60495;DHT22;46342;49.046;11.920;2023-07-20T08:31:01;23.30;51.10
60495;DHT22;46342;49.046;11.920;2023-07-20T08:33:28;23.30;50.90
60495;DHT22;46342;49.046;11.920;2023-07-20T08:35:55;23.40;50.90
60495;DHT22;46342;49.046;11.920;2023-07-20T08:38:21;23.40;50.90
60495;DHT22;46342;49.046;11.920;2023-07-20T08:40:47;23.50;50.70
60495;DHT22;46342;49.046;11.920;2023-07-20T08:43:14;23.60;50.50
60495;DHT22;46342;49.046;11.920;2023-07-20T08:45:42;23.60;50.30
60495;DHT22;46342;49.046;11.920;2023-07-20T08:48:07;23.70;50.10
60495;DHT22;46342;49.046;11.920;2023-07-20T08:50:34;23.70;49.60
60495;DHT22;46342;49.046;11.920;2023-07-20T08:53:00;23.80;49.80
60495;DHT22;46342;49.046;11.920;2023-07-20T08:55:27;23.80;49.10
60495;DHT22;46342;49.046;11.920;2023-07-20T08:57:54;23.80;48.90
60495;DHT22;46342;49.046;11.920;2023-07-20T09:00:21;23.80;48.70
60495;DHT22;46342;49.046;11.920;2023-07-20T09:02:51;23.90;48.70
60495;DHT22;46342;49.046;11.920;2023-07-20T09:05:21;23.90;48.60
60495;DHT22;46342;49.046;11.920;2023-07-20T09:07:48;23.90;48.40
60495;DHT22;46342;49.046;11.920;2023-07-20T09:10:14;24.00;48.30
60495;DHT22;46342;49.046;11.920;2023-07-20T09:12:41;24.10;48.20
60495;DHT22;46342;49.046;11.920;2023-07-20T09:15:08;24.10;47.90
60495;DHT22;46342;49.046;11.920;2023-07-20T09:17:34;24.20;47.70
60495;DHT22;46342;49.046;11.920;2023-07-20T09:20:03;24.30;47.60
60495;DHT22;46342;49.046;11.920;2023-07-20T09:22:36;24.30;46.90
60495;DHT22;46342;49.046;11.920;2023-07-20T09:25:11;24.30;47.10
60495;DHT22;46342;49.046;11.920;2023-07-20T09:27:47;24.40;46.80
60495;DHT22;46342;49.046;11.920;2023-07-20T09:30:16;24.50;46.40
60495;DHT22;46342;49.046;11.920;2023-07-20T09:32:44;24.50;46.60
60495;DHT22;46342;49.046;11.920;2023-07-20T09:35:16;24.60;46.80
60495;DHT22;46342;49.046;11.920;2023-07-20T09:38:01;24.60;46.40
60495;DHT22;46342;49.046;11.920;2023-07-20T09:40:27;24.70;45.60
60495;DHT22;46342;49.046;11.920;2023-07-20T09:42:54;24.70;46.50
60495;DHT22;46342;49.046;11.920;2023-07-20T09:45:44;24.70;46.30
60495;DHT22;46342;49.046;11.920;2023-07-20T09:48:10;24.80;44.70
60495;DHT22;46342;49.046;11.920;2023-07-20T09:50:40;24.80;45.80
60495;DHT22;46342;49.046;11.920;2023-07-20T09:53:09;24.90;45.50
60495;DHT22;46342;49.046;11.920;2023-07-20T09:55:35;24.90;45.70
60495;DHT22;46342;49.046;11.920;2023-07-20T09:58:02;25.00;45.70
60495;DHT22;46342;49.046;11.920;2023-07-20T10:00:29;25.00;45.40
60495;DHT22;46342;49.046;11.920;2023-07-20T10:02:56;25.00;45.30
60495;DHT22;46342;49.046;11.920;2023-07-20T10:05:24;25.10;45.20
60495;DHT22;46342;49.046;11.920;2023-07-20T10:07:50;25.10;45.10
60495;DHT22;46342;49.046;11.920;2023-07-20T10:10:18;25.20;45.20
60495;DHT22;46342;49.046;11.920;2023-07-20T10:12:47;25.30;45.10
60495;DHT22;46342;49.046;11.920;2023-07-20T10:15:31;25.40;44.60
60495;DHT22;46342;49.046;11.920;2023-07-20T10:18:06;25.50;43.70
60495;DHT22;46342;49.046;11.920;2023-07-20T10:20:36;25.60;44.50
60495;DHT22;46342;49.046;11.920;2023-07-20T10:23:04;25.60;44.20
60495;DHT22;46342;49.046;11.920;2023-07-20T10:25:31;25.70;44.00
60495;DHT22;46342;49.046;11.920;2023-07-20T10:27:58;25.70;43.80
60495;DHT22;46342;49.046;11.920;2023-07-20T10:30:25;25.80;43.50
60495;DHT22;46342;49.046;11.920;2023-07-20T10:32:52;25.80;43.40
60495;DHT22;46342;49.046;11.920;2023-07-20T10:35:18;25.80;43.30
60495;DHT22;46342;49.046;11.920;2023-07-20T10:37:52;25.90;43.40
60495;DHT22;46342;49.046;11.920;2023-07-20T10:40:31;26.00;42.50
60495;DHT22;46342;49.046;11.920;2023-07-20T10:42:59;26.00;42.20
60495;DHT22;46342;49.046;11.920;2023-07-20T10:45:35;26.00;42.70
60495;DHT22;46342;49.046;11.920;2023-07-20T10:48:27;26.10;41.60
60495;DHT22;46342;49.046;11.920;2023-07-20T10:51:12;26.30;41.80
60495;DHT22;46342;49.046;11.920;2023-07-20T10:53:41;26.40;41.50
60495;DHT22;46342;49.046;11.920;2023-07-20T10:56:13;26.40;42.50
60495;DHT22;46342;49.046;11.920;2023-07-20T10:58:41;26.50;41.80
60495;DHT22;46342;49.046;11.920;2023-07-20T11:01:08;26.50;42.20
60495;DHT22;46342;49.046;11.920;2023-07-20T11:03:36;26.50;42.10
60495;DHT22;46342;49.046;11.920;2023-07-20T11:09:10;26.70;40.90
60495;DHT22;46342;49.046;11.920;2023-07-20T11:11:38;26.70;40.70
60495;DHT22;46342;49.046;11.920;2023-07-20T11:14:08;26.70;41.70
60495;DHT22;46342;49.046;11.920;2023-07-20T11:16:45;26.80;40.80
60495;DHT22;46342;49.046;11.920;2023-07-20T11:19:25;26.90;41.30
60495;DHT22;46342;49.046;11.920;2023-07-20T11:21:52;27.00;40.80
60495;DHT22;46342;49.046;11.920;2023-07-20T11:24:19;27.00;41.10
60495;DHT22;46342;49.046;11.920;2023-07-20T11:26:48;27.10;41.10
60495;DHT22;46342;49.046;11.920;2023-07-20T11:29:16;27.20;40.60
60495;DHT22;46342;49.046;11.920;2023-07-20T11:31:42;27.30;40.50
60495;DHT22;46342;49.046;11.920;2023-07-20T11:34:16;27.30;40.60
60495;DHT22;46342;49.046;11.920;2023-07-20T11:36:44;27.40;39.90
60495;DHT22;46342;49.046;11.920;2023-07-20T11:39:09;27.40;40.40
60495;DHT22;46342;49.046;11.920;2023-07-20T11:41:35;27.60;40.60
60495;DHT22;46342;49.046;11.920;2023-07-20T11:44:01;27.60;40.40
60495;DHT22;46342;49.046;11.920;2023-07-20T11:46:28;27.70;40.10
60495;DHT22;46342;49.046;11.920;2023-07-20T11:49:03;27.70;39.70
60495;DHT22;46342;49.046;11.920;2023-07-20T11:51:29;27.90;38.40
60495;DHT22;46342;49.046;11.920;2023-07-20T11:53:56;27.90;39.50
60495;DHT22;46342;49.046;11.920;2023-07-20T11:56:25;28.00;39.20
60495;DHT22;46342;49.046;11.920;2023-07-20T11:58:55;28.00;38.40
60495;DHT22;46342;49.046;11.920;2023-07-20T12:01:23;28.00;38.30
60495;DHT22;46342;49.046;11.920;2023-07-20T12:03:49;28.00;38.60
60495;DHT22;46342;49.046;11.920;2023-07-20T12:06:27;28.00;38.60
60495;DHT22;46342;49.046;11.920;2023-07-20T12:08:59;28.10;37.90
60495;DHT22;46342;49.046;11.920;2023-07-20T12:14:47;28.20;37.60
60495;DHT22;46342;49.046;11.920;2023-07-20T12:20:38;28.20;36.60
60495;DHT22;46342;49.046;11.920;2023-07-20T12:23:10;28.10;37.10
60495;DHT22;46342;49.046;11.920;2023-07-20T12:28:09;28.10;37.40
60495;DHT22;46342;49.046;11.920;2023-07-20T12:30:56;28.10;36.90
60495;DHT22;46342;49.046;11.920;2023-07-20T12:33:30;28.10;36.50
60495;DHT22;46342;49.046;11.920;2023-07-20T12:35:56;28.10;36.70
60495;DHT22;46342;49.046;11.920;2023-07-20T12:38:24;28.10;37.40
60495;DHT22;46342;49.046;11.920;2023-07-20T12:41:00;28.20;37.20
60495;DHT22;46342;49.046;11.920;2023-07-20T12:43:26;28.20;35.90
60495;DHT22;46342;49.046;11.920;2023-07-20T12:45:52;28.20;37.00
60495;DHT22;46342;49.046;11.920;2023-07-20T12:48:18;28.30;36.90
60495;DHT22;46342;49.046;11.920;2023-07-20T12:50:43;28.40;36.70
60495;DHT22;46342;49.046;11.920;2023-07-20T12:53:09;28.50;36.70
60495;DHT22;46342;49.046;11.920;2023-07-20T12:55:38;28.60;36.40
60495;DHT22;46342;49.046;11.920;2023-07-20T12:58:04;28.60;36.10
60495;DHT22;46342;49.046;11.920;2023-07-20T13:00:30;28.70;36.10
60495;DHT22;46342;49.046;11.920;2023-07-20T13:02:56;28.70;35.80
60495;DHT22;46342;49.046;11.920;2023-07-20T13:05:21;28.80;35.60
60495;DHT22;46342;49.046;11.920;2023-07-20T13:07:47;28.80;35.50
60495;DHT22;46342;49.046;11.920;2023-07-20T13:10:12;28.90;35.50
60495;DHT22;46342;49.046;11.920;2023-07-20T13:12:39;29.00;35.60
60495;DHT22;46342;49.046;11.920;2023-07-20T13:15:06;29.10;35.40
60495;DHT22;46342;49.046;11.920;2023-07-20T13:17:32;29.10;35.10
60495;DHT22;46342;49.046;11.920;2023-07-20T13:19:58;29.20;34.90
60495;DHT22;46342;49.046;11.920;2023-07-20T13:22:24;29.20;34.70
60495;DHT22;46342;49.046;11.920;2023-07-20T13:24:50;29.20;34.50
60495;DHT22;46342;49.046;11.920;2023-07-20T13:27:16;29.10;34.20
60495;DHT22;46342;49.046;11.920;2023-07-20T13:29:42;29.10;34.30
60495;DHT22;46342;49.046;11.920;2023-07-20T13:32:09;29.10;34.40
60495;DHT22;46342;49.046;11.920;2023-07-20T13:34:35;29.10;34.30
60495;DHT22;46342;49.046;11.920;2023-07-20T13:37:01;29.10;34.20
60495;DHT22;46342;49.046;11.920;2023-07-20T13:46:11;29.30;33.00
60495;DHT22;46342;49.046;11.920;2023-07-20T13:48:36;29.30;34.00
60495;DHT22;46342;49.046;11.920;2023-07-20T13:51:02;29.40;33.70
60495;DHT22;46342;49.046;11.920;2023-07-20T13:53:28;29.40;33.50
60495;DHT22;46342;49.046;11.920;2023-07-20T13:55:54;29.50;33.50
60495;DHT22;46342;49.046;11.920;2023-07-20T13:58:19;29.50;33.30
60495;DHT22;46342;49.046;11.920;2023-07-20T14:00:45;29.60;33.30
60495;DHT22;46342;49.046;11.920;2023-07-20T14:03:11;29.60;33.30
60495;DHT22;46342;49.046;11.920;2023-07-20T14:05:36;29.70;33.80
60495;DHT22;46342;49.046;11.920;2023-07-20T14:08:02;29.70;33.00
60495;DHT22;46342;49.046;11.920;2023-07-20T14:10:27;29.80;32.80
60495;DHT22;46342;49.046;11.920;2023-07-20T14:12:53;29.80;32.60
60495;DHT22;46342;49.046;11.920;2023-07-20T14:15:18;29.90;32.50
60495;DHT22;46342;49.046;11.920;2023-07-20T14:17:45;29.90;32.40
60495;DHT22;46342;49.046;11.920;2023-07-20T14:20:11;29.90;32.40
60495;DHT22;46342;49.046;11.920;2023-07-20T14:22:37;29.90;32.90
60495;DHT22;46342;49.046;11.920;2023-07-20T14:25:03;29.90;32.30
60495;DHT22;46342;49.046;11.920;2023-07-20T14:27:29;30.00;32.30
60495;DHT22;46342;49.046;11.920;2023-07-20T14:29:55;30.00;32.20
60495;DHT22;46342;49.046;11.920;2023-07-20T14:32:21;30.00;32.20
60495;DHT22;46342;49.046;11.920;2023-07-20T14:34:46;30.10;32.10
60495;DHT22;46342;49.046;11.920;2023-07-20T14:37:12;30.10;31.90
60495;DHT22;46342;49.046;11.920;2023-07-20T14:39:38;30.20;31.80
60495;DHT22;46342;49.046;11.920;2023-07-20T14:42:04;30.20;31.60
60495;DHT22;46342;49.046;11.920;2023-07-20T14:44:30;30.30;31.50
60495;DHT22;46342;49.046;11.920;2023-07-20T14:46:55;30.30;31.30
60495;DHT22;46342;49.046;11.920;2023-07-20T14:49:21;30.30;31.10
60495;DHT22;46342;49.046;11.920;2023-07-20T14:51:47;30.30;30.90
60495;DHT22;46342;49.046;11.920;2023-07-20T14:54:13;30.30;30.80
60495;DHT22;46342;49.046;11.920;2023-07-20T14:56:39;30.30;30.90
60495;DHT22;46342;49.046;11.920;2023-07-20T14:59:05;30.30;31.10
60495;DHT22;46342;49.046;11.920;2023-07-20T15:01:31;30.40;31.20
60495;DHT22;46342;49.046;11.920;2023-07-20T15:03:57;30.40;31.00
60495;DHT22;46342;49.046;11.920;2023-07-20T15:06:23;30.40;31.00
60495;DHT22;46342;49.046;11.920;2023-07-20T15:08:51;30.50;30.80
60495;DHT22;46342;49.046;11.920;2023-07-20T15:11:16;30.60;30.70
60495;DHT22;46342;49.046;11.920;2023-07-20T15:13:42;30.60;30.50
60495;DHT22;46342;49.046;11.920;2023-07-20T15:16:08;30.60;30.50
60495;DHT22;46342;49.046;11.920;2023-07-20T15:18:35;30.60;30.50
60495;DHT22;46342;49.046;11.920;2023-07-20T15:21:00;30.80;30.60
60495;DHT22;46342;49.046;11.920;2023-07-20T15:23:26;30.70;31.30
60495;DHT22;46342;49.046;11.920;2023-07-20T15:25:51;30.80;30.50
60495;DHT22;46342;49.046;11.920;2023-07-20T15:28:17;30.80;30.30
60495;DHT22;46342;49.046;11.920;2023-07-20T15:30:43;30.80;30.10
60495;DHT22;46342;49.046;11.920;2023-07-20T15:33:08;30.70;29.90
60495;DHT22;46342;49.046;11.920;2023-07-20T15:35:34;30.70;29.90
60495;DHT22;46342;49.046;11.920;2023-07-20T15:37:59;30.70;29.90
60495;DHT22;46342;49.046;11.920;2023-07-20T15:40:25;30.60;29.90
60495;DHT22;46342;49.046;11.920;2023-07-20T15:42:51;30.50;29.80
60495;DHT22;46342;49.046;11.920;2023-07-20T15:45:16;30.50;29.90
60495;DHT22;46342;49.046;11.920;2023-07-20T15:47:42;30.50;29.90